createdAt,value
2022-11-17T00:00:24.188Z,98084.03
2022-11-17T00:03:27.030Z,98091.38
2022-11-17T00:06:29.926Z,98079.22
2022-11-17T00:09:34.157Z,98079.41
2022-11-17T00:12:54.551Z,98070.56
2022-11-17T00:15:57.421Z,98071.78
2022-11-17T00:19:17.872Z,98063.28
2022-11-17T00:22:21.134Z,98064.94
2022-11-17T00:25:25.372Z,98064.47
2022-11-17T00:28:28.195Z,98059.28
2022-11-17T00:31:49.029Z,98062.28
2022-11-17T00:34:51.848Z,98053.66
2022-11-17T00:38:12.340Z,98057.31
2022-11-17T00:41:16.561Z,98054.66
2022-11-17T00:44:19.365Z,98054.66
2022-11-17T00:47:22.225Z,98048.31
2022-11-17T00:50:25.313Z,98041.97
2022-11-17T00:53:28.157Z,98039.00
2022-11-17T00:56:32.352Z,98040.84
2022-11-17T00:59:35.198Z,98041.03
2022-11-17T01:02:37.979Z,98033.03
2022-11-17T01:05:40.750Z,98033.03
2022-11-17T01:08:43.953Z,98028.72
2022-11-17T01:11:48.675Z,98031.31
2022-11-17T01:14:51.497Z,98024.88
2022-11-17T01:17:54.287Z,98018.06
2022-11-17T01:20:57.064Z,98027.91
2022-11-17T01:24:00.506Z,98022.75
2022-11-17T01:27:04.786Z,98013.44
2022-11-17T01:30:08.127Z,98015.75
2022-11-17T01:33:10.982Z,98021.06
2022-11-17T01:36:14.574Z,98024.56
2022-11-17T01:39:17.381Z,98023.91
2022-11-17T01:42:22.566Z,98022.06
2022-11-17T01:45:26.944Z,98021.25
2022-11-17T01:48:29.759Z,98013.44
2022-11-17T01:51:33.780Z,98017.75
2022-11-17T01:54:38.451Z,98008.13
2022-11-17T01:57:44.953Z,98019.78
2022-11-17T02:00:47.821Z,98009.13
2022-11-17T02:03:51.710Z,98003.75
2022-11-17T02:06:57.295Z,98007.66
2022-11-17T02:10:00.756Z,98004.91
2022-11-17T02:13:05.555Z,98008.53
2022-11-17T02:16:12.099Z,98002.47
2022-11-17T02:19:17.322Z,98005.72
2022-11-17T02:22:33.665Z,98002.69
2022-11-17T02:25:48.872Z,98007.94
2022-11-17T02:28:57.746Z,98002.91
2022-11-17T02:32:05.823Z,98000.25
2022-11-17T02:35:11.970Z,98000.88
2022-11-17T02:38:19.642Z,97992.50
2022-11-17T02:41:26.460Z,97991.78
2022-11-17T02:44:33.542Z,97983.09
2022-11-17T02:47:37.760Z,97994.38
2022-11-17T02:50:43.025Z,97989.88
2022-11-17T02:53:46.105Z,97980.69
2022-11-17T02:56:48.829Z,97982.16
2022-11-17T02:59:52.955Z,97980.16
2022-11-17T03:03:07.682Z,97975.28
2022-11-17T03:06:16.872Z,97964.06
2022-11-17T03:09:24.512Z,97980.22
2022-11-17T03:12:32.837Z,97977.50
2022-11-17T03:15:41.778Z,97974.81
2022-11-17T03:18:48.849Z,97977.66
2022-11-17T03:21:55.320Z,97964.97
2022-11-17T03:25:00.285Z,97970.66
2022-11-17T03:28:05.714Z,97960.38
2022-11-17T03:31:11.343Z,97968.72
2022-11-17T03:34:16.261Z,97964.91
2022-11-17T03:37:22.225Z,97966.75
2022-11-17T03:40:26.663Z,97970.00
2022-11-17T03:43:30.294Z,97977.91
2022-11-17T03:46:35.249Z,97968.25
2022-11-17T03:49:41.885Z,97960.16
2022-11-17T03:52:45.108Z,97951.50
2022-11-17T03:55:50.832Z,97953.72
2022-11-17T03:58:56.408Z,97955.91
2022-11-17T04:02:00.573Z,97953.59
2022-11-17T04:05:09.386Z,97955.91
2022-11-17T04:08:12.182Z,97955.75
2022-11-17T04:11:41.020Z,97955.91
2022-11-17T04:15:01.494Z,97963.88
2022-11-17T04:18:06.066Z,97957.09
2022-11-17T04:21:08.808Z,97958.47
2022-11-17T04:24:11.606Z,97946.97
2022-11-17T04:27:31.833Z,97949.38
2022-11-17T04:30:34.595Z,97950.84
2022-11-17T04:33:39.615Z,97959.66
2022-11-17T04:36:44.494Z,97958.34
2022-11-17T04:39:47.261Z,97963.88
2022-11-17T04:42:49.006Z,97963.22
2022-11-17T04:45:51.789Z,97963.69
2022-11-17T04:48:56.398Z,97951.09
2022-11-17T04:51:59.222Z,97950.44
2022-11-17T04:55:02.003Z,97963.75
2022-11-17T04:58:04.780Z,97956.59
2022-11-17T05:01:13.691Z,97956.13
2022-11-17T05:04:39.661Z,97962.63
2022-11-17T05:07:42.445Z,97972.47
2022-11-17T05:11:02.973Z,97970.81
2022-11-17T05:14:05.834Z,97966.03
2022-11-17T05:17:11.570Z,97958.69
2022-11-17T05:20:18.768Z,97965.22
2022-11-17T05:23:39.168Z,97959.72
2022-11-17T05:26:42.926Z,97958.41
2022-11-17T05:29:45.690Z,97964.72
2022-11-17T05:32:48.460Z,97962.06
2022-11-17T05:35:52.647Z,97961.88
2022-11-17T05:38:55.685Z,97972.34
2022-11-17T05:41:58.533Z,97969.06
2022-11-17T05:45:01.341Z,97966.56
2022-11-17T05:48:04.187Z,97969.25
2022-11-17T05:51:08.462Z,97958.09
2022-11-17T05:54:11.362Z,97953.44
2022-11-17T05:57:17.363Z,97961.59
2022-11-17T06:00:20.257Z,97960.59
2022-11-17T06:03:25.366Z,97962.25
2022-11-17T06:06:29.646Z,97964.44
2022-11-17T06:09:33.911Z,97965.25
2022-11-17T06:12:36.701Z,97963.78
2022-11-17T06:15:39.842Z,97959.66
2022-11-17T06:18:44.858Z,97963.97
2022-11-17T06:22:10.972Z,97959.47
2022-11-17T06:25:12.148Z,97965.81
2022-11-17T06:28:16.089Z,97959.00
2022-11-17T06:31:19.277Z,97965.97
2022-11-17T06:34:22.120Z,97957.81
2022-11-17T06:37:26.579Z,97959.00
2022-11-17T06:40:29.842Z,97955.69
2022-11-17T06:43:32.874Z,97945.03
2022-11-17T06:46:39.037Z,97943.38
2022-11-17T06:49:41.867Z,97949.41
2022-11-17T06:52:46.062Z,97949.91
2022-11-17T06:55:50.617Z,97948.91
2022-11-17T06:58:55.032Z,97950.06
2022-11-17T07:01:57.826Z,97942.91
2022-11-17T07:05:00.777Z,97946.56
2022-11-17T07:08:08.091Z,97944.59
2022-11-17T07:11:11.976Z,97944.59
2022-11-17T07:14:14.803Z,97939.25
2022-11-17T07:17:17.630Z,97933.25
2022-11-17T07:20:20.424Z,97933.25
2022-11-17T07:23:24.561Z,97928.94
2022-11-17T07:26:27.462Z,97936.94
2022-11-17T07:29:30.896Z,97939.78
2022-11-17T07:32:34.273Z,97930.59
2022-11-17T07:35:37.391Z,97946.91
2022-11-17T07:38:41.655Z,97950.59
2022-11-17T07:41:45.103Z,97955.38
2022-11-17T07:44:47.916Z,97951.41
2022-11-17T07:47:57.441Z,97953.41
2022-11-17T07:51:00.261Z,97944.59
2022-11-17T07:54:04.650Z,97945.59
2022-11-17T07:57:07.561Z,97943.94
2022-11-17T08:00:11.124Z,97942.28
2022-11-17T08:03:14.021Z,97939.63
2022-11-17T08:06:17.011Z,97932.84
2022-11-17T08:09:21.244Z,97935.31
2022-11-17T08:12:24.115Z,97936.34
2022-11-17T08:15:26.937Z,97940.97
2022-11-17T08:18:30.388Z,97938.50
2022-11-17T08:21:33.381Z,97942.00
2022-11-17T08:24:37.499Z,97945.59
2022-11-17T08:27:40.272Z,97935.13
2022-11-17T08:30:44.433Z,97938.34
2022-11-17T08:33:47.250Z,97937.34
2022-11-17T08:36:50.043Z,97940.75
2022-11-17T08:39:54.159Z,97933.19
2022-11-17T08:43:00.979Z,97930.44
2022-11-17T08:46:04.666Z,97930.53
2022-11-17T08:49:07.426Z,97926.84
2022-11-17T08:52:10.227Z,97920.91
2022-11-17T08:55:14.403Z,97920.41
2022-11-17T08:58:17.534Z,97913.53
2022-11-17T09:01:20.557Z,97908.69
2022-11-17T09:04:23.402Z,97908.69
2022-11-17T09:07:28.370Z,97915.84
2022-11-17T09:10:37.605Z,97904.34
2022-11-17T09:13:40.398Z,97905.53
2022-11-17T09:16:43.126Z,97909.03
2022-11-17T09:19:45.950Z,97909.59
2022-11-17T09:22:48.719Z,97904.09
2022-11-17T09:25:52.900Z,97907.56
2022-11-17T09:28:55.777Z,97904.81
2022-11-17T09:31:58.776Z,97903.69
2022-11-17T09:35:01.680Z,97904.06
2022-11-17T09:38:04.541Z,97903.88
2022-11-17T09:41:19.232Z,97903.06
2022-11-17T09:44:33.145Z,97896.44
2022-11-17T09:47:41.466Z,97900.09
2022-11-17T09:50:45.394Z,97892.50
2022-11-17T09:53:53.515Z,97895.97
2022-11-17T09:56:59.139Z,97896.97
2022-11-17T10:00:07.390Z,97894.31
2022-11-17T10:03:15.332Z,97892.38
2022-11-17T10:06:21.056Z,97893.22
2022-11-17T10:09:30.493Z,97912.22
2022-11-17T10:12:39.070Z,97913.41
2022-11-17T10:15:44.788Z,97911.09
2022-11-17T10:18:47.606Z,97917.63
2022-11-17T10:21:51.625Z,97920.47
2022-11-17T10:24:55.604Z,97918.00
2022-11-17T10:27:59.756Z,97914.41
2022-11-17T10:31:03.671Z,97912.59
2022-11-17T10:34:06.447Z,97920.94
2022-11-17T10:37:24.192Z,97910.97
2022-11-17T10:40:28.235Z,97915.47
2022-11-17T10:43:34.995Z,97914.38
2022-11-17T10:46:55.431Z,97906.03
2022-11-17T10:50:13.721Z,97923.84
2022-11-17T10:53:23.998Z,97916.13
2022-11-17T10:56:26.838Z,97922.28
2022-11-17T10:59:32.826Z,97924.94
2022-11-17T11:02:36.729Z,97923.19
2022-11-17T11:05:39.694Z,97923.56
2022-11-17T11:08:52.514Z,97939.56
2022-11-17T11:11:58.015Z,97931.56
2022-11-17T11:15:03.494Z,97936.63
2022-11-17T11:18:12.667Z,97942.13
2022-11-17T11:21:18.534Z,97940.66
2022-11-17T11:24:24.096Z,97946.00
2022-11-17T11:27:36.249Z,97939.66
2022-11-17T11:30:43.745Z,97939.00
2022-11-17T11:33:51.353Z,97944.69
2022-11-17T11:36:56.634Z,97936.88
2022-11-17T11:40:04.821Z,97939.06
2022-11-17T11:43:24.059Z,97945.41
2022-11-17T11:46:36.514Z,97944.59
2022-11-17T11:49:41.492Z,97945.81
2022-11-17T11:52:46.990Z,97949.81
2022-11-17T11:55:50.856Z,97934.56
2022-11-17T11:58:58.424Z,97935.59
2022-11-17T12:02:15.701Z,97932.56
2022-11-17T12:05:22.811Z,97932.09
2022-11-17T12:08:28.670Z,97929.41
2022-11-17T12:11:50.207Z,97930.63
2022-11-17T12:15:07.780Z,97937.50
2022-11-17T12:18:30.242Z,97944.75
2022-11-17T12:21:33.089Z,97950.63
2022-11-17T14:48:47.725Z,97958.19
2022-11-17T14:51:50.708Z,97963.50
2022-11-17T14:54:53.386Z,97955.88
2022-11-17T14:57:57.071Z,97953.06
2022-11-17T15:00:59.765Z,97949.22
2022-11-17T15:04:27.269Z,97948.88
2022-11-17T15:07:27.146Z,97940.56
2022-11-17T15:10:29.936Z,97952.16
2022-11-17T15:13:32.736Z,97934.25
2022-11-17T15:16:35.502Z,97934.56
2022-11-17T15:19:39.573Z,97931.53
2022-11-17T15:22:42.441Z,97943.28
2022-11-17T15:25:45.133Z,97939.59
2022-11-17T15:28:47.892Z,97945.41
2022-11-17T15:31:50.631Z,97947.22
2022-11-17T15:34:54.690Z,97933.72
2022-11-17T15:37:57.374Z,97941.00
2022-11-17T15:41:00.170Z,97937.75
2022-11-17T15:44:02.850Z,97929.97
2022-11-17T15:47:06.140Z,97929.38
2022-11-17T15:50:10.875Z,97918.22
2022-11-17T15:53:13.570Z,97920.06
2022-11-17T15:56:18.806Z,97917.84
2022-11-17T15:59:21.660Z,97927.16
2022-11-17T16:02:24.356Z,97917.34
2022-11-17T16:05:28.462Z,97934.13
2022-11-17T16:08:31.385Z,97918.63
2022-11-17T16:11:34.207Z,97927.44
2022-11-17T16:14:36.957Z,97928.94
2022-11-17T16:17:39.645Z,97927.63
2022-11-17T16:20:44.206Z,97924.44
2022-11-17T16:23:47.944Z,97928.75
2022-11-17T16:26:51.354Z,97928.38
2022-11-17T16:29:56.086Z,97930.34
2022-11-17T16:32:58.813Z,97910.50
2022-11-17T16:36:06.653Z,97902.06
2022-11-17T16:39:10.189Z,97906.28
2022-11-17T16:42:12.948Z,97896.91
2022-11-17T16:45:15.728Z,97901.94
2022-11-17T16:48:18.393Z,97899.84
2022-11-17T16:51:22.822Z,97895.22
2022-11-17T16:54:25.508Z,97883.75
2022-11-17T16:57:28.230Z,97885.75
2022-11-17T17:00:31.146Z,97887.94
2022-11-17T17:03:34.950Z,97886.44
2022-11-17T17:06:40.230Z,97883.97
2022-11-17T17:09:42.940Z,97882.84
2022-11-17T17:12:45.607Z,97871.25
2022-11-17T17:15:50.997Z,97873.06
2022-11-17T17:18:56.304Z,97871.13
2022-11-17T17:22:00.428Z,97871.97
2022-11-17T17:25:03.730Z,97875.34
2022-11-17T17:28:06.354Z,97872.19
2022-11-17T17:31:10.163Z,97860.91
2022-11-17T17:34:13.592Z,97871.06
2022-11-17T17:37:18.190Z,97854.63
2022-11-17T17:40:20.970Z,97851.66
2022-11-17T17:43:23.755Z,97852.84
2022-11-17T17:46:26.806Z,97851.34
2022-11-17T17:49:29.480Z,97853.72
2022-11-17T17:52:33.551Z,97853.88
2022-11-17T17:55:36.288Z,97852.38
2022-11-17T17:58:41.298Z,97854.22
2022-11-17T18:01:46.212Z,97851.72
2022-11-17T18:04:49.258Z,97849.59
2022-11-17T18:07:53.335Z,97839.78
2022-11-17T18:11:00.289Z,97836.28
2022-11-17T18:14:03.478Z,97829.84
2022-11-17T18:17:06.147Z,97828.56
2022-11-17T18:20:10.145Z,97828.56
2022-11-17T18:23:14.157Z,97836.22
2022-11-17T18:26:19.628Z,97830.88
2022-11-17T18:29:22.408Z,97831.25
2022-11-17T18:32:25.107Z,97830.75
2022-11-17T18:35:27.756Z,97838.53
2022-11-17T18:38:31.788Z,97830.94
2022-11-17T18:41:34.592Z,97837.25
2022-11-17T18:44:37.638Z,97833.59
2022-11-17T18:47:40.550Z,97828.97
2022-11-17T18:51:12.293Z,97832.63
2022-11-17T18:54:11.655Z,97835.19
2022-11-17T18:57:14.268Z,97841.75
2022-11-17T19:00:17.766Z,97833.78
2022-11-17T19:03:21.394Z,97821.03
2022-11-17T19:06:24.871Z,97812.25
2022-11-17T19:09:28.968Z,97809.91
2022-11-17T19:12:31.623Z,97805.25
2022-11-17T19:15:35.314Z,97808.84
2022-11-17T19:18:38.445Z,97802.03
2022-11-17T19:21:41.168Z,97801.28
2022-11-17T19:24:45.529Z,97795.28
2022-11-17T19:27:48.213Z,97784.25
2022-11-17T19:30:50.926Z,97787.38
2022-11-17T19:33:54.376Z,97776.56
2022-11-17T19:36:58.412Z,97769.53
2022-11-17T19:40:02.468Z,97765.03
2022-11-17T19:43:05.117Z,97759.81
2022-11-17T19:46:08.789Z,97764.72
2022-11-17T19:49:13.065Z,97752.44
2022-11-17T19:52:15.764Z,97751.44
2022-11-17T19:55:19.760Z,97755.34
2022-11-17T19:58:22.452Z,97748.47
2022-11-17T20:01:25.905Z,97747.03
2022-11-17T20:04:28.696Z,97732.16
2022-11-17T20:07:31.470Z,97731.16
2022-11-17T20:10:35.649Z,97732.44
2022-11-17T20:13:38.711Z,97730.44
2022-11-17T20:16:41.427Z,97730.56
2022-11-17T20:19:44.422Z,97725.09
2022-11-17T20:22:47.097Z,97719.13
2022-11-17T20:25:51.136Z,97713.53
2022-11-17T20:28:54.348Z,97697.28
2022-11-17T20:31:57.077Z,97707.09
2022-11-17T20:35:00.070Z,97709.75
2022-11-17T20:38:03.300Z,97688.00
2022-11-17T20:41:07.771Z,97680.19
2022-11-17T20:44:23.839Z,97691.03
2022-11-17T20:47:27.661Z,97676.28
2022-11-17T20:50:31.980Z,97687.63
2022-11-17T20:53:34.944Z,97679.00
2022-11-17T20:56:38.974Z,97679.38
2022-11-17T20:59:41.610Z,97687.06
2022-11-17T21:02:44.300Z,97679.09
2022-11-17T21:05:58.436Z,97678.63
2022-11-17T21:09:01.992Z,97683.13
2022-11-17T21:12:06.556Z,97662.84
2022-11-17T21:15:09.655Z,97669.53
2022-11-17T21:18:27.691Z,97670.56
2022-11-17T21:21:30.469Z,97663.59
2022-11-17T21:24:33.173Z,97644.28
2022-11-17T21:27:37.272Z,97645.50
2022-11-17T21:30:40.010Z,97639.53
2022-11-17T21:33:43.319Z,97649.53
2022-11-17T21:36:46.301Z,97652.38
2022-11-17T21:39:48.989Z,97644.91
2022-11-17T21:42:53.031Z,97640.72
2022-11-17T21:45:55.671Z,97642.00
2022-11-17T21:48:59.121Z,97644.59
2022-11-17T21:52:01.883Z,97644.50
2022-11-17T21:55:04.857Z,97635.44
2022-11-17T21:58:08.966Z,97639.63
2022-11-17T22:01:13.727Z,97637.41
2022-11-17T22:04:16.471Z,97649.81
2022-11-17T22:07:19.233Z,97639.16
2022-11-17T22:10:21.996Z,97648.63
2022-11-17T22:13:26.000Z,97648.72
2022-11-17T22:16:28.664Z,97655.34
2022-11-17T22:19:31.324Z,97649.03
2022-11-17T22:22:34.033Z,97653.97
2022-11-17T22:25:45.227Z,97666.16
2022-11-17T22:28:53.145Z,97661.22
2022-11-17T22:31:55.829Z,97654.22
2022-11-17T22:35:01.403Z,97649.06
2022-11-17T22:38:04.226Z,97659.72
2022-11-17T22:41:07.719Z,97658.53
2022-11-17T22:44:13.496Z,97664.66
2022-11-17T22:47:16.253Z,97669.81
2022-11-17T22:50:19.105Z,97677.34
2022-11-17T22:53:21.751Z,97676.06
2022-11-17T22:56:24.481Z,97683.44
2022-11-17T22:59:29.189Z,97678.00
2022-11-17T23:02:31.932Z,97678.84
2022-11-17T23:05:34.668Z,97678.22
2022-11-17T23:08:37.343Z,97685.38
2022-11-17T23:11:40.072Z,97676.72
2022-11-17T23:14:44.230Z,97657.00
2022-11-17T23:17:47.979Z,97649.28
2022-11-17T23:20:50.720Z,97661.75
2022-11-17T23:23:53.453Z,97670.84
2022-11-17T23:26:56.109Z,97671.28
2022-11-17T23:30:00.164Z,97670.94
2022-11-17T23:33:02.861Z,97670.09
2022-11-17T23:36:06.604Z,97674.50
2022-11-17T23:39:09.352Z,97665.31
2022-11-17T23:42:12.028Z,97668.78
2022-11-17T23:45:16.113Z,97683.19
2022-11-17T23:48:18.840Z,97665.56
2022-11-17T23:51:22.198Z,97666.63
2022-11-17T23:54:24.883Z,97676.38
2022-11-17T23:57:27.541Z,97685.94
